Time;durP1;ratioP1;P1;durP2;ratioP2;P2;SDS_P1;SDS_P2;PMS_P1;PMS_P2;Temp;Humidity;BMP_temperature;BMP_pressure;BME280_temperature;BME280_humidity;BME280_pressure;Samples;Min_cycle;Max_cycle;Signal;HPM_P1;HPM_P2
2023/02/05 00:01:30;;;;;;;8.07;1.30;;;-2.30;99.90;;;;;;5064423;28;20075;-65
2023/02/05 00:03:57;;;;;;;3.17;0.65;;;-2.30;99.90;;;;;;5065593;28;20045;-67
2023/02/05 00:06:24;;;;;;;2.22;1.30;;;-2.40;99.90;;;;;;5064296;28;20378;-66
2023/02/05 00:08:51;;;;;;;6.20;1.35;;;-2.30;99.90;;;;;;5063492;28;20549;-67
2023/02/05 00:11:18;;;;;;;4.40;1.55;;;-2.40;99.90;;;;;;5066739;28;20044;-66
2023/02/05 00:13:45;;;;;;;6.05;1.38;;;-2.30;99.90;;;;;;5060314;28;20049;-66
2023/02/05 00:16:13;;;;;;;7.90;1.70;;;-2.30;99.90;;;;;;5067090;28;20755;-67
2023/02/05 00:18:40;;;;;;;4.28;1.27;;;-2.40;99.90;;;;;;5067496;28;20055;-67
2023/02/05 00:21:08;;;;;;;6.97;1.92;;;-2.50;99.90;;;;;;5062597;28;20056;-65
2023/02/05 00:23:35;;;;;;;17.83;3.53;;;-2.60;99.90;;;;;;5064063;28;20040;-65
2023/02/05 00:26:04;;;;;;;5.35;2.60;;;-2.70;99.90;;;;;;5066714;28;20062;-66
2023/02/05 00:28:32;;;;;;;4.90;2.67;;;-2.90;99.90;;;;;;5059904;28;20148;-67
2023/02/05 00:31:00;;;;;;;9.70;3.17;;;-3.00;99.90;;;;;;5060547;28;20041;-67
2023/02/05 00:33:27;;;;;;;19.60;4.20;;;-3.10;99.90;;;;;;5063090;28;20055;-68
2023/02/05 00:35:54;;;;;;;19.08;4.78;;;-3.20;99.90;;;;;;5064613;28;20048;-66
2023/02/05 00:38:21;;;;;;;18.48;5.63;;;-3.20;99.90;;;;;;5063411;28;20048;-68
2023/02/05 00:40:48;;;;;;;20.65;4.57;;;-3.30;99.90;;;;;;5061653;28;20398;-70
2023/02/05 00:43:15;;;;;;;18.40;3.90;;;-3.30;99.90;;;;;;5065117;28;20044;-70
2023/02/05 00:45:42;;;;;;;16.40;4.43;;;-3.40;99.90;;;;;;5058886;28;20114;-69
2023/02/05 00:48:09;;;;;;;21.17;4.13;;;-3.50;99.90;;;;;;5060229;28;20064;-66
2023/02/05 00:50:36;;;;;;;8.23;2.97;;;-3.50;99.90;;;;;;5065162;28;20070;-67
2023/02/05 00:53:03;;;;;;;11.75;3.83;;;-3.60;99.90;;;;;;5064583;28;20048;-65
2023/02/05 00:55:30;;;;;;;14.10;3.00;;;-3.60;99.90;;;;;;5062801;28;20483;-70
2023/02/05 00:57:57;;;;;;;10.63;3.08;;;-3.70;99.90;;;;;;5062569;28;20128;-69
2023/02/05 01:00:25;;;;;;;9.57;2.88;;;-3.70;99.90;;;;;;5056631;28;20136;-66
2023/02/05 01:02:53;;;;;;;11.40;3.08;;;-3.80;99.90;;;;;;5062900;28;20163;-68
2023/02/05 01:05:20;;;;;;;8.80;2.80;;;-3.80;99.90;;;;;;5063757;28;20055;-66
2023/02/05 01:07:47;;;;;;;29.40;6.82;;;-3.80;99.90;;;;;;5062819;28;20056;-67
2023/02/05 01:10:15;;;;;;;42.28;4.72;;;-3.90;99.90;;;;;;5059572;28;20552;-66
2023/02/05 01:12:41;;;;;;;19.40;3.67;;;-4.00;99.90;;;;;;5065789;28;20071;-66
2023/02/05 01:15:11;;;;;;;12.80;2.85;;;-4.00;99.90;;;;;;5061911;28;20044;-65
2023/02/05 01:17:37;;;;;;;8.70;2.80;;;-4.10;99.90;;;;;;5054987;28;20044;-67
2023/02/05 01:20:05;;;;;;;15.53;2.90;;;-4.20;99.90;;;;;;5062040;28;20401;-66
2023/02/05 01:22:32;;;;;;;26.07;3.70;;;-4.20;99.90;;;;;;5061636;28;20080;-66
2023/02/05 01:24:59;;;;;;;19.93;3.63;;;-4.30;99.90;;;;;;5065500;28;20135;-68
2023/02/05 01:27:25;;;;;;;13.77;5.37;;;-4.30;99.90;;;;;;5063761;28;20056;-66
2023/02/05 01:29:52;;;;;;;13.57;3.47;;;-4.30;99.90;;;;;;5064890;28;20980;-67
2023/02/05 01:32:19;;;;;;;15.20;3.07;;;-4.30;99.90;;;;;;5063965;28;20464;-67
2023/02/05 01:34:46;;;;;;;12.75;4.20;;;-4.40;99.90;;;;;;5058646;28;20618;-68
2023/02/05 01:37:13;;;;;;;18.97;3.10;;;-4.40;99.90;;;;;;5059513;28;20051;-65
2023/02/05 01:39:40;;;;;;;16.67;3.33;;;-4.50;99.90;;;;;;5059713;28;20090;-66
2023/02/05 01:42:31;;;;;;;14.40;2.87;;;-4.50;99.90;;;;;;5063502;28;20094;-65
2023/02/05 01:45:20;;;;;;;16.33;3.40;;;-4.60;99.90;;;;;;5058242;28;20053;-66
2023/02/05 01:47:53;;;;;;;13.63;3.57;;;-4.60;99.90;;;;;;5057596;28;20061;-70
2023/02/05 01:50:35;;;;;;;11.13;3.90;;;-4.60;99.90;;;;;;5063249;28;20287;-72
2023/02/05 01:53:07;;;;;;;8.73;2.87;;;-4.60;99.90;;;;;;5060250;28;20071;-66
2023/02/05 01:55:38;;;;;;;14.40;4.70;;;-4.70;99.90;;;;;;5059547;28;20107;-71
2023/02/05 01:58:06;;;;;;;4.90;1.90;;;-4.70;99.90;;;;;;5061458;28;20896;-67
2023/02/05 02:00:32;;;;;;;5.93;2.33;;;-4.70;99.90;;;;;;5063058;28;20059;-66
2023/02/05 02:03:00;;;;;;;5.83;1.70;;;-4.70;99.90;;;;;;5060813;28;20041;-69
2023/02/05 02:05:27;;;;;;;9.60;2.40;;;-4.70;99.90;;;;;;5062940;28;20636;-66
2023/02/05 02:07:53;;;;;;;7.03;2.37;;;-4.80;99.90;;;;;;5059781;28;20063;-65
2023/02/05 02:10:20;;;;;;;6.60;2.30;;;-4.80;99.90;;;;;;5064573;28;20047;-69
2023/02/05 02:12:49;;;;;;;9.57;2.70;;;-4.80;99.90;;;;;;5070195;28;20049;-66
2023/02/05 02:15:20;;;;;;;9.70;1.90;;;-4.80;99.90;;;;;;5067667;28;20060;-67
2023/02/05 02:17:53;;;;;;;14.40;2.87;;;-4.80;99.90;;;;;;5062847;28;20471;-68
2023/02/05 02:20:25;;;;;;;21.07;3.93;;;-4.80;99.90;;;;;;5063984;28;20067;-68
2023/02/05 02:23:27;;;;;;;2.87;2.27;;;-4.80;99.90;;;;;;5062020;28;20043;-67
2023/02/05 02:26:15;;;;;;;7.97;2.67;;;-4.80;99.90;;;;;;5029350;28;20166;-65
2023/02/05 02:28:42;;;;;;;14.37;2.27;;;-4.90;99.90;;;;;;5066731;28;20220;-65
2023/02/05 02:31:45;;;;;;;2.50;1.30;;;-4.90;99.90;;;;;;5069212;28;20470;-69
2023/02/05 02:34:22;;;;;;;3.73;2.03;;;-4.90;99.90;;;;;;5075583;28;20060;-68
2023/02/05 02:37:00;;;;;;;4.37;1.40;;;-4.90;99.90;;;;;;5064892;28;20044;-66
2023/02/05 02:39:36;;;;;;;7.73;2.00;;;-4.90;99.90;;;;;;5066000;28;20052;-66
2023/02/05 02:42:14;;;;;;;9.87;2.17;;;-4.90;99.90;;;;;;5063697;28;20368;-66
2023/02/05 02:44:56;;;;;;;6.13;1.87;;;-4.80;99.90;;;;;;5067815;28;20048;-67
2023/02/05 02:47:30;;;;;;;7.80;2.30;;;-4.80;99.90;;;;;;5064870;28;20135;-64
2023/02/05 02:50:12;;;;;;;4.60;2.60;;;-4.80;99.90;;;;;;5061468;28;20045;-66
2023/02/05 02:52:43;;;;;;;3.57;1.73;;;-4.80;99.90;;;;;;5066007;28;20048;-66
2023/02/05 02:55:12;;;;;;;8.03;1.53;;;-4.80;99.90;;;;;;5068443;28;20655;-66
2023/02/05 02:57:46;;;;;;;7.10;2.03;;;-4.80;99.90;;;;;;5065886;28;20098;-66
2023/02/05 03:00:20;;;;;;;21.10;2.90;;;-4.90;99.90;;;;;;5081377;28;20468;-65
2023/02/05 03:02:50;;;;;;;6.83;1.73;;;-4.90;99.90;;;;;;5058679;28;20055;-71
2023/02/05 03:05:20;;;;;;;5.00;1.33;;;-4.90;99.90;;;;;;5067283;28;20103;-65
2023/02/05 03:07:53;;;;;;;7.73;1.97;;;-4.80;99.90;;;;;;5064737;28;20175;-68
2023/02/05 03:10:43;;;;;;;5.93;1.97;;;-4.80;99.90;;;;;;5063014;28;20048;-66
2023/02/05 03:13:13;;;;;;;8.50;1.93;;;-4.80;99.90;;;;;;5067500;28;20063;-66
2023/02/05 03:15:45;;;;;;;11.10;2.40;;;-4.90;99.90;;;;;;5064254;28;20531;-66
2023/02/05 03:18:15;;;;;;;4.60;1.80;;;-4.90;99.90;;;;;;5066547;28;20079;-65
2023/02/05 03:20:52;;;;;;;5.17;1.10;;;-4.90;99.90;;;;;;5079020;28;20045;-65
2023/02/05 03:23:19;;;;;;;4.87;1.77;;;-4.90;99.90;;;;;;5062805;28;20044;-65
2023/02/05 03:25:46;;;;;;;6.47;1.33;;;-4.90;99.90;;;;;;5064856;28;20049;-67
2023/02/05 03:28:15;;;;;;;6.13;1.60;;;-4.80;99.90;;;;;;5064177;28;20101;-67
2023/02/05 03:30:51;;;;;;;3.93;1.40;;;-4.90;99.90;;;;;;5056596;28;20139;-65
2023/02/05 03:33:39;;;;;;;6.00;1.43;;;-4.90;99.90;;;;;;5062680;28;20051;-69
2023/02/05 03:36:31;;;;;;;7.03;1.30;;;-4.90;99.90;;;;;;5065866;28;20139;-67
2023/02/05 03:39:20;;;;;;;3.67;1.20;;;-4.90;99.90;;;;;;5064208;28;20048;-72
2023/02/05 03:42:08;;;;;;;1.67;1.30;;;-4.90;99.90;;;;;;5062898;28;20582;-73
2023/02/05 03:44:41;;;;;;;2.80;1.33;;;-4.90;99.90;;;;;;5082814;28;20049;-66
2023/02/05 03:47:16;;;;;;;5.40;1.50;;;-4.90;99.90;;;;;;5066945;28;20429;-67
2023/02/05 03:49:44;;;;;;;2.20;1.03;;;-4.90;99.90;;;;;;5063427;28;20048;-67
2023/02/05 03:52:16;;;;;;;0.97;0.67;;;-4.90;99.90;;;;;;5067335;28;20045;-63
2023/02/05 03:54:57;;;;;;;4.87;1.50;;;-4.80;99.90;;;;;;5062267;28;20047;-63
2023/02/05 03:57:45;;;;;;;2.83;0.97;;;-4.80;99.90;;;;;;5061823;28;20136;-68
2023/02/05 04:00:13;;;;;;;3.30;1.73;;;-4.70;99.90;;;;;;5058551;28;20049;-64
2023/02/05 04:02:43;;;;;;;1.60;1.50;;;-4.70;99.90;;;;;;5060062;28;20485;-65
2023/02/05 04:05:15;;;;;;;4.57;1.17;;;-4.70;99.90;;;;;;5061522;28;20052;-66
2023/02/05 04:07:43;;;;;;;6.53;1.20;;;-4.70;99.90;;;;;;5062621;28;20070;-67
2023/02/05 04:10:11;;;;;;;2.40;1.13;;;-4.60;99.90;;;;;;5071994;28;20069;-71
2023/02/05 04:12:39;;;;;;;2.10;1.40;;;-4.50;99.90;;;;;;5065245;28;20076;-66
2023/02/05 04:15:07;;;;;;;15.50;1.83;;;-4.50;99.90;;;;;;5065503;28;20657;-65
2023/02/05 04:17:37;;;;;;;2.30;1.63;;;-4.40;99.90;;;;;;5064533;28;20045;-68
2023/02/05 04:20:05;;;;;;;5.70;1.52;;;-4.40;99.90;;;;;;5064853;28;20094;-66
2023/02/05 04:22:32;;;;;;;5.13;1.40;;;-4.30;99.90;;;;;;5077277;28;20058;-65
2023/02/05 04:24:59;;;;;;;5.27;1.60;;;-4.30;99.90;;;;;;5057463;28;20734;-64
2023/02/05 04:27:26;;;;;;;5.73;2.30;;;-4.20;99.90;;;;;;5063678;28;20167;-64
2023/02/05 04:29:55;;;;;;;1.27;1.00;;;-4.10;99.90;;;;;;5064095;28;20097;-68
2023/02/05 04:32:22;;;;;;;1.47;1.23;;;-4.00;99.90;;;;;;5061080;28;20045;-63
2023/02/05 04:34:50;;;;;;;6.33;1.10;;;-4.00;99.90;;;;;;5067166;28;20040;-65
2023/02/05 04:37:17;;;;;;;3.23;1.10;;;-3.90;99.90;;;;;;5063488;28;20069;-68
2023/02/05 04:39:46;;;;;;;2.17;0.82;;;-3.90;99.90;;;;;;5062041;28;20053;-63
2023/02/05 04:42:12;;;;;;;8.23;1.13;;;-3.80;99.90;;;;;;5058818;28;20059;-64
2023/02/05 04:44:39;;;;;;;2.70;2.00;;;-3.80;99.90;;;;;;5065266;28;20048;-65
2023/02/05 04:47:06;;;;;;;0.70;0.70;;;-3.60;99.90;;;;;;5060195;28;20072;-67
2023/02/05 04:49:33;;;;;;;1.42;0.80;;;-3.50;99.90;;;;;;5066178;28;20044;-66
2023/02/05 04:52:00;;;;;;;0.73;0.57;;;-3.40;99.90;;;;;;5062905;28;20048;-67
2023/02/05 04:54:27;;;;;;;0.60;0.60;;;-3.30;99.90;;;;;;5058848;28;20048;-64
2023/02/05 04:56:54;;;;;;;1.90;0.60;;;-3.30;99.90;;;;;;5065518;28;20040;-65
2023/02/05 04:59:21;;;;;;;1.23;0.87;;;-3.30;99.90;;;;;;5065040;28;20413;-68
2023/02/05 05:01:48;;;;;;;1.88;1.00;;;-3.20;99.90;;;;;;5060192;28;20684;-64
2023/02/05 05:04:14;;;;;;;2.65;0.82;;;-3.20;99.90;;;;;;5061220;28;20051;-64
2023/02/05 05:06:41;;;;;;;3.08;1.13;;;-3.20;99.90;;;;;;5062013;28;20052;-68
2023/02/05 05:09:08;;;;;;;1.27;0.85;;;-3.10;99.90;;;;;;5061804;28;20045;-65
2023/02/05 05:11:35;;;;;;;3.42;1.35;;;-3.10;99.90;;;;;;5057805;28;20072;-64
2023/02/05 05:14:02;;;;;;;1.23;0.65;;;-3.10;99.90;;;;;;5064617;28;20426;-67
2023/02/05 05:16:28;;;;;;;1.80;1.00;;;-3.20;99.90;;;;;;5059092;28;20037;-66
2023/02/05 05:18:56;;;;;;;4.88;1.20;;;-3.20;99.90;;;;;;5063074;28;20048;-64
2023/02/05 05:21:23;;;;;;;2.53;0.80;;;-3.10;99.90;;;;;;5060357;28;20049;-66
2023/02/05 05:23:49;;;;;;;2.30;0.50;;;-3.00;99.90;;;;;;5059736;28;20047;-69
2023/02/05 05:26:16;;;;;;;1.75;1.25;;;-3.00;99.90;;;;;;5066958;28;20483;-65
2023/02/05 05:28:43;;;;;;;1.33;1.00;;;-3.10;99.90;;;;;;5059397;28;20056;-65
2023/02/05 05:31:15;;;;;;;2.72;1.20;;;-3.10;99.90;;;;;;5066102;28;20044;-66
2023/02/05 05:33:42;;;;;;;1.65;0.90;;;-3.00;99.90;;;;;;5062535;28;20048;-65
2023/02/05 05:36:09;;;;;;;6.82;1.13;;;-3.00;99.90;;;;;;5064163;28;20402;-66
2023/02/05 05:38:36;;;;;;;5.30;1.00;;;-2.90;99.90;;;;;;5062227;28;20521;-67
2023/02/05 05:43:50;;;;;;;3.83;0.90;;;-2.90;99.90;;;;;;5059594;28;20051;-66
2023/02/05 05:46:25;;;;;;;3.10;1.00;;;-2.80;99.90;;;;;;5058230;28;20483;-66
2023/02/05 05:48:57;;;;;;;3.92;2.13;;;-2.80;99.90;;;;;;5063092;28;20366;-67
2023/02/05 05:51:26;;;;;;;2.80;1.25;;;-2.70;99.90;;;;;;5064906;28;20506;-67
2023/02/05 05:53:53;;;;;;;4.95;1.55;;;-2.60;99.90;;;;;;5061584;28;20055;-66
2023/02/05 05:56:21;;;;;;;2.22;0.80;;;-2.50;99.90;;;;;;5061311;28;20400;-66
2023/02/05 05:58:48;;;;;;;3.53;1.75;;;-2.40;99.90;;;;;;5063666;28;20049;-65
2023/02/05 06:01:17;;;;;;;2.05;1.48;;;-2.40;99.90;;;;;;5059065;28;20045;-65
2023/02/05 06:03:44;;;;;;;6.72;0.75;;;-2.30;99.90;;;;;;5058559;28;20072;-68
2023/02/05 06:06:12;;;;;;;2.88;1.17;;;-2.20;99.90;;;;;;5060697;28;20134;-67
2023/02/05 06:08:38;;;;;;;2.10;0.77;;;-2.20;99.90;;;;;;5065843;28;20053;-66
2023/02/05 06:11:05;;;;;;;2.08;1.30;;;-2.10;99.90;;;;;;5060301;28;20044;-71
2023/02/05 06:13:33;;;;;;;4.03;0.75;;;-2.00;99.90;;;;;;5065537;28;20052;-67
2023/02/05 06:16:00;;;;;;;2.67;0.80;;;-2.00;99.90;;;;;;5062746;28;20053;-66
2023/02/05 06:18:28;;;;;;;1.83;1.73;;;-1.90;99.90;;;;;;5061495;28;20052;-69
2023/02/05 06:20:55;;;;;;;3.17;2.15;;;-1.70;99.90;;;;;;5061326;28;20070;-68
2023/02/05 06:23:22;;;;;;;5.28;1.13;;;-1.60;99.90;;;;;;5063306;28;20502;-69
2023/02/05 06:25:49;;;;;;;2.17;1.33;;;-1.50;99.90;;;;;;5062498;28;20052;-69
2023/02/05 06:28:15;;;;;;;4.13;1.55;;;-1.30;99.90;;;;;;5064817;28;20548;-66
2023/02/05 06:30:42;;;;;;;1.73;1.00;;;-1.20;99.90;;;;;;5063295;28;20059;-65
2023/02/05 06:33:11;;;;;;;6.30;1.30;;;-1.10;99.90;;;;;;5063091;28;20049;-70
2023/02/05 06:35:39;;;;;;;2.08;0.65;;;-1.00;99.90;;;;;;5062398;28;20040;-66
2023/02/05 06:38:07;;;;;;;2.67;2.47;;;-1.00;99.90;;;;;;5065922;28;20048;-65
2023/02/05 06:40:34;;;;;;;3.38;0.90;;;-0.90;99.90;;;;;;5064062;28;20048;-71
2023/02/05 06:43:00;;;;;;;1.10;1.00;;;-0.80;99.90;;;;;;5062795;28;20082;-65
2023/02/05 06:45:27;;;;;;;2.70;2.10;;;-0.80;99.90;;;;;;5063476;28;20042;-65
2023/02/05 06:47:55;;;;;;;2.13;1.33;;;-0.80;99.90;;;;;;5053384;28;21430;-68
2023/02/05 06:50:22;;;;;;;7.10;2.03;;;-0.70;99.90;;;;;;5037599;28;20041;-65
2023/02/05 06:52:50;;;;;;;6.95;1.17;;;-0.70;99.90;;;;;;5064870;28;20052;-70
2023/02/05 06:55:17;;;;;;;6.60;3.40;;;-0.70;99.90;;;;;;5062482;28;20053;-69
2023/02/05 06:57:44;;;;;;;11.80;4.55;;;-0.60;99.90;;;;;;5064144;28;20049;-65
2023/02/05 07:00:11;;;;;;;3.30;2.80;;;-0.50;99.90;;;;;;5068158;28;20056;-66
2023/02/05 07:02:38;;;;;;;4.15;1.38;;;-0.50;99.90;;;;;;5065041;28;20044;-72
2023/02/05 07:05:05;;;;;;;2.05;1.15;;;-0.50;99.90;;;;;;5066626;28;20474;-65
2023/02/05 07:07:33;;;;;;;1.60;0.82;;;-0.50;99.90;;;;;;5065837;28;20048;-67
2023/02/05 07:10:00;;;;;;;2.08;1.70;;;-0.40;99.90;;;;;;5062342;28;20490;-67
2023/02/05 07:12:27;;;;;;;4.68;1.48;;;-0.30;99.90;;;;;;5066945;28;20445;-66
2023/02/05 07:14:54;;;;;;;2.08;1.40;;;-0.30;99.90;;;;;;5068194;28;20143;-70
2023/02/05 07:17:21;;;;;;;4.93;1.73;;;-0.30;99.90;;;;;;5065980;28;20128;-68
2023/02/05 07:19:48;;;;;;;1.98;1.05;;;-0.30;99.90;;;;;;5065615;28;20048;-65
2023/02/05 07:22:15;;;;;;;6.35;1.58;;;-0.30;99.90;;;;;;5067222;28;20122;-66
2023/02/05 07:24:42;;;;;;;5.38;1.15;;;-0.20;99.90;;;;;;5061891;28;20045;-69
2023/02/05 07:27:09;;;;;;;1.58;0.80;;;-0.20;99.90;;;;;;5065069;28;20520;-66
2023/02/05 07:29:36;;;;;;;8.60;1.38;;;-0.20;99.90;;;;;;5067012;28;20062;-65
2023/02/05 07:32:03;;;;;;;1.98;0.73;;;-0.20;99.90;;;;;;5066889;28;20045;-67
2023/02/05 07:34:29;;;;;;;1.17;0.68;;;-0.20;99.90;;;;;;5065033;28;20589;-66
2023/02/05 07:36:56;;;;;;;3.72;0.75;;;-0.10;99.90;;;;;;5067107;28;20467;-65
2023/02/05 07:39:23;;;;;;;4.03;0.90;;;-0.20;99.90;;;;;;5064960;28;20107;-68
2023/02/05 07:41:52;;;;;;;4.47;0.90;;;-0.10;99.90;;;;;;5063023;28;20040;-65
2023/02/05 07:44:26;;;;;;;3.58;0.90;;;-0.10;99.90;;;;;;5054638;28;20041;-67
2023/02/05 07:46:53;;;;;;;6.82;1.35;;;-0.10;99.90;;;;;;5066307;28;20429;-68
2023/02/05 07:49:20;;;;;;;3.50;1.80;;;-0.10;99.90;;;;;;5063442;28;20056;-67
2023/02/05 07:51:47;;;;;;;1.73;0.80;;;-0.10;99.90;;;;;;5063958;28;20059;-65
2023/02/05 07:54:14;;;;;;;2.33;1.10;;;-0.10;99.90;;;;;;5061617;28;20164;-64
2023/02/05 07:56:41;;;;;;;6.00;0.95;;;-0.10;99.90;;;;;;5062653;28;20485;-65
2023/02/05 07:59:08;;;;;;;4.35;0.85;;;-0.10;99.90;;;;;;5066281;28;20049;-65
2023/02/05 08:01:35;;;;;;;11.18;3.63;;;-0.10;99.90;;;;;;5063887;28;20036;-70
2023/02/05 08:04:02;;;;;;;2.45;0.95;;;0.00;99.90;;;;;;5065091;28;20413;-65
2023/02/05 08:06:29;;;;;;;0.65;0.55;;;0.00;99.90;;;;;;5058089;28;20127;-66
2023/02/05 08:08:56;;;;;;;3.40;0.98;;;0.00;99.90;;;;;;5066037;28;20101;-68
2023/02/05 08:11:23;;;;;;;4.45;1.50;;;0.00;99.90;;;;;;5066380;28;20779;-65
2023/02/05 08:13:50;;;;;;;2.90;1.35;;;0.00;99.90;;;;;;5062021;28;20041;-66
2023/02/05 08:16:17;;;;;;;2.30;1.23;;;0.00;99.90;;;;;;5066222;28;20040;-69
2023/02/05 08:18:49;;;;;;;2.88;1.33;;;0.00;99.90;;;;;;5063679;28;20072;-64
2023/02/05 08:21:17;;;;;;;3.58;1.48;;;0.10;99.90;;;;;;5064820;28;20048;-67
2023/02/05 08:23:44;;;;;;;2.78;1.05;;;0.10;99.90;;;;;;5057505;28;20068;-64
2023/02/05 08:26:12;;;;;;;6.32;1.27;;;0.10;99.90;;;;;;5064503;28;20051;-64
2023/02/05 08:28:39;;;;;;;3.03;0.80;;;0.10;99.90;;;;;;5064729;28;20068;-65
2023/02/05 08:31:10;;;;;;;6.82;1.20;;;0.10;99.90;;;;;;5062308;28;20054;-63
2023/02/05 08:33:37;;;;;;;9.55;1.98;;;0.10;99.90;;;;;;5063695;28;20052;-64
2023/02/05 08:36:05;;;;;;;7.43;1.27;;;0.10;99.90;;;;;;5062424;28;20037;-63
2023/02/05 08:38:32;;;;;;;4.22;1.60;;;0.20;99.90;;;;;;5063626;28;20052;-64
2023/02/05 08:41:03;;;;;;;4.03;1.92;;;0.20;99.90;;;;;;5063806;28;20040;-65
2023/02/05 08:43:30;;;;;;;1.80;1.00;;;0.20;99.90;;;;;;5063566;28;20044;-64
2023/02/05 08:45:57;;;;;;;2.55;1.00;;;0.20;99.90;;;;;;5061653;28;20059;-66
2023/02/05 08:48:24;;;;;;;11.40;1.50;;;0.20;99.90;;;;;;5063206;28;20052;-64
2023/02/05 08:50:51;;;;;;;3.95;0.70;;;0.20;99.90;;;;;;5064810;28;20044;-63
2023/02/05 08:53:18;;;;;;;2.58;1.60;;;0.20;99.90;;;;;;5064774;28;20099;-64
2023/02/05 08:55:44;;;;;;;3.47;1.50;;;0.20;99.90;;;;;;5062867;28;20491;-65
2023/02/05 08:58:11;;;;;;;5.20;2.17;;;0.20;99.90;;;;;;5065836;28;20041;-63
2023/02/05 09:00:38;;;;;;;1.90;1.23;;;0.20;99.90;;;;;;5064126;28;20036;-65
2023/02/05 09:03:05;;;;;;;4.88;1.92;;;0.30;99.90;;;;;;5061445;28;20059;-64
2023/02/05 09:05:32;;;;;;;8.60;1.20;;;0.30;99.90;;;;;;5066730;28;20040;-69
2023/02/05 09:08:00;;;;;;;4.43;0.68;;;0.30;99.90;;;;;;5064003;28;20048;-67
2023/02/05 09:10:26;;;;;;;3.08;0.90;;;0.30;99.90;;;;;;5065994;28;20040;-65
2023/02/05 09:12:53;;;;;;;1.38;1.10;;;0.30;99.90;;;;;;5079099;28;20036;-68
2023/02/05 09:15:20;;;;;;;5.68;2.22;;;0.30;99.90;;;;;;5064717;28;20048;-65
2023/02/05 09:17:47;;;;;;;3.65;1.70;;;0.30;99.90;;;;;;5062442;28;20444;-66
2023/02/05 09:20:14;;;;;;;5.65;0.98;;;0.30;99.90;;;;;;5062351;28;20055;-63
2023/02/05 09:22:41;;;;;;;1.95;0.60;;;0.30;99.90;;;;;;5064264;28;20036;-63
2023/02/05 09:25:08;;;;;;;1.95;0.60;;;0.40;99.90;;;;;;5065541;28;20051;-66
2023/02/05 09:27:35;;;;;;;1.70;0.70;;;0.40;99.90;;;;;;5063968;28;20120;-64
2023/02/05 09:30:02;;;;;;;2.20;0.90;;;0.40;99.90;;;;;;5063916;28;20048;-65
2023/02/05 09:32:28;;;;;;;8.98;2.08;;;0.40;99.90;;;;;;5062785;28;20136;-66
2023/02/05 09:34:55;;;;;;;11.90;2.58;;;0.40;99.90;;;;;;5065884;28;20144;-67
2023/02/05 09:37:22;;;;;;;4.70;0.90;;;0.50;99.90;;;;;;5063658;28;20046;-67
2023/02/05 09:39:49;;;;;;;7.55;1.58;;;0.40;99.90;;;;;;5061932;28;20043;-66
2023/02/05 09:42:47;;;;;;;4.25;0.95;;;0.40;99.90;;;;;;5064478;28;20052;-63
2023/02/05 09:45:35;;;;;;;1.00;0.68;;;0.50;99.90;;;;;;5064436;28;20087;-63
2023/02/05 09:48:28;;;;;;;9.18;1.30;;;0.50;99.90;;;;;;5064148;28;20577;-64
2023/02/05 09:50:56;;;;;;;1.55;1.05;;;0.50;99.90;;;;;;5063437;28;20040;-68
2023/02/05 09:53:28;;;;;;;2.28;1.15;;;0.50;99.90;;;;;;5054479;28;20041;-63
2023/02/05 09:55:56;;;;;;;2.72;0.85;;;0.60;99.90;;;;;;5062397;28;20162;-64
2023/02/05 09:58:30;;;;;;;2.70;1.38;;;0.60;99.90;;;;;;5059633;28;20047;-65
2023/02/05 10:01:05;;;;;;;14.93;1.85;;;0.60;99.90;;;;;;5066386;28;20131;-65
2023/02/05 10:04:08;;;;;;;3.50;2.08;;;0.60;99.90;;;;;;5064448;28;20072;-71
2023/02/05 10:07:24;;;;;;;6.20;1.60;;;0.60;99.90;;;;;;5030421;28;20514;-64
2023/02/05 10:10:21;;;;;;;2.90;1.08;;;0.60;99.90;;;;;;5037552;28;20044;-65
2023/02/05 10:13:15;;;;;;;6.55;1.58;;;0.60;99.90;;;;;;5064115;28;20049;-63
2023/02/05 10:16:03;;;;;;;3.08;1.05;;;0.60;99.90;;;;;;5060857;28;20099;-68
2023/02/05 10:19:09;;;;;;;6.13;2.38;;;0.60;99.90;;;;;;5063409;28;20047;-65
2023/02/05 10:21:58;;;;;;;8.23;1.35;;;0.60;99.90;;;;;;5040904;28;20091;-64
2023/02/05 10:24:36;;;;;;;10.93;2.00;;;0.60;99.90;;;;;;5059546;28;20051;-63
2023/02/05 10:27:16;;;;;;;4.57;1.42;;;0.70;99.90;;;;;;5058767;28;20056;-65
2023/02/05 10:30:05;;;;;;;3.13;1.23;;;0.70;99.90;;;;;;5060665;28;20050;-64
2023/02/05 10:32:57;;;;;;;3.45;1.35;;;0.80;99.90;;;;;;5066766;28;20068;-65
2023/02/05 10:35:30;;;;;;;;;;;0.80;99.90;;;;;;5058247;28;20072;-63
2023/02/05 10:37:57;;;;;;;3.67;1.50;;;0.80;99.90;;;;;;5066799;28;19962;-66
2023/02/05 10:40:29;;;;;;;6.78;1.00;;;0.90;99.90;;;;;;5065968;28;20040;-64
2023/02/05 10:43:12;;;;;;;8.30;1.70;;;0.90;99.90;;;;;;5064653;28;20052;-68
2023/02/05 10:45:39;;;;;;;5.18;1.02;;;1.00;99.90;;;;;;5065792;28;20060;-66
2023/02/05 10:48:25;;;;;;;6.38;0.80;;;0.90;99.90;;;;;;5067865;28;20148;-64
2023/02/05 10:51:00;;;;;;;9.38;1.00;;;1.00;99.90;;;;;;5066494;28;20055;-67
2023/02/05 10:53:28;;;;;;;5.53;0.82;;;1.00;99.90;;;;;;5061942;28;20098;-66
2023/02/05 10:55:57;;;;;;;4.50;1.20;;;1.00;99.90;;;;;;5064332;28;20054;-66
2023/02/05 10:58:46;;;;;;;9.00;1.45;;;1.00;99.90;;;;;;5064932;28;20071;-65
2023/02/05 11:01:15;;;;;;;6.50;1.38;;;1.00;99.90;;;;;;5067973;28;20053;-65
2023/02/05 11:03:52;;;;;;;5.25;1.13;;;0.90;99.90;;;;;;5063902;28;20486;-67
2023/02/05 11:06:20;;;;;;;5.15;2.00;;;0.90;99.90;;;;;;5068379;28;20491;-65
2023/02/05 11:08:47;;;;;;;3.47;1.65;;;0.80;99.90;;;;;;5067728;28;20474;-65
2023/02/05 11:11:27;;;;;;;3.88;1.35;;;0.80;99.90;;;;;;5066678;28;20036;-66
2023/02/05 11:14:01;;;;;;;11.13;1.95;;;0.80;99.90;;;;;;5065372;28;20114;-68
2023/02/05 11:16:43;;;;;;;2.55;0.70;;;0.80;99.90;;;;;;5066667;28;20044;-65
2023/02/05 11:19:28;;;;;;;7.10;1.05;;;0.80;99.90;;;;;;5064719;28;20738;-68
2023/02/05 11:21:59;;;;;;;10.05;3.67;;;0.80;99.90;;;;;;5066893;28;20379;-67
2023/02/05 11:24:30;;;;;;;1.17;0.68;;;0.80;99.90;;;;;;5063284;28;20055;-66
2023/02/05 11:27:14;;;;;;;3.97;1.23;;;0.80;99.90;;;;;;5063124;28;20048;-65
2023/02/05 11:29:42;;;;;;;4.13;1.60;;;0.90;99.90;;;;;;5063781;28;20094;-69
2023/02/05 11:32:19;;;;;;;1.08;0.60;;;0.90;99.90;;;;;;5059247;28;20059;-65
2023/02/05 11:34:46;;;;;;;4.50;1.65;;;0.90;99.90;;;;;;5063722;28;20052;-67
2023/02/05 11:37:17;;;;;;;2.85;0.65;;;1.00;99.90;;;;;;5066150;28;20032;-65
2023/02/05 11:39:52;;;;;;;3.63;0.88;;;1.10;99.90;;;;;;5063929;28;20049;-65
2023/02/05 11:42:23;;;;;;;4.30;1.20;;;1.10;99.90;;;;;;5064848;28;20049;-68
2023/02/05 11:44:55;;;;;;;7.05;0.63;;;1.20;99.90;;;;;;5065667;28;20124;-65
2023/02/05 11:47:35;;;;;;;4.28;2.05;;;1.20;99.90;;;;;;5067854;28;20136;-65
2023/02/05 11:50:04;;;;;;;1.00;0.52;;;1.30;99.90;;;;;;5063095;28;20040;-66
2023/02/05 11:52:36;;;;;;;1.40;0.82;;;1.30;99.90;;;;;;5064746;28;20048;-68
2023/02/05 11:55:05;;;;;;;3.78;0.98;;;1.30;99.90;;;;;;5063262;28;20487;-66
2023/02/05 11:57:38;;;;;;;2.55;0.60;;;1.30;99.90;;;;;;5065538;28;20413;-67
2023/02/05 12:00:08;;;;;;;2.78;0.80;;;1.30;99.90;;;;;;5063400;28;20059;-65
2023/02/05 12:02:36;;;;;;;4.88;1.00;;;1.30;99.90;;;;;;5066715;28;20124;-66
2023/02/05 12:05:12;;;;;;;2.55;2.25;;;1.30;99.90;;;;;;5060687;28;20048;-66
2023/02/05 12:07:46;;;;;;;6.60;0.88;;;1.30;99.90;;;;;;5063204;28;20067;-65
2023/02/05 12:10:28;;;;;;;3.60;0.88;;;1.30;99.90;;;;;;5063758;28;20056;-67
2023/02/05 12:13:05;;;;;;;5.18;0.73;;;1.30;99.90;;;;;;5064980;28;20135;-68
2023/02/05 12:15:49;;;;;;;2.72;0.60;;;1.20;99.90;;;;;;5066891;28;20398;-64
2023/02/05 12:18:30;;;;;;;9.43;0.98;;;1.30;99.90;;;;;;5064332;28;20053;-67
2023/02/05 12:21:17;;;;;;;6.13;1.08;;;1.30;99.90;;;;;;5063975;28;20056;-66
2023/02/05 12:24:21;;;;;;;7.30;1.10;;;1.30;99.90;;;;;;5065101;28;20051;-66
2023/02/05 12:26:52;;;;;;;3.72;0.80;;;1.30;99.90;;;;;;5064992;28;20049;-72
2023/02/05 12:29:37;;;;;;;2.20;1.35;;;1.30;99.90;;;;;;5064807;28;20147;-72
2023/02/05 12:32:26;;;;;;;6.55;1.15;;;1.30;99.90;;;;;;5064681;28;20048;-65
2023/02/05 12:35:16;;;;;;;2.63;1.45;;;1.30;99.90;;;;;;5063462;28;20086;-68
2023/02/05 12:38:03;;;;;;;4.22;0.60;;;1.30;99.90;;;;;;5050386;28;20143;-65
2023/02/05 12:40:54;;;;;;;5.45;0.85;;;1.30;99.90;;;;;;5062054;28;20053;-65
2023/02/05 12:43:43;;;;;;;5.47;1.00;;;1.30;99.90;;;;;;5058633;28;20406;-66
2023/02/05 12:46:19;;;;;;;1.42;0.60;;;1.30;99.90;;;;;;5062284;28;20102;-66
2023/02/05 12:49:00;;;;;;;1.33;0.90;;;1.30;99.90;;;;;;5065399;28;20036;-66
2023/02/05 12:51:29;;;;;;;;;;;1.30;99.90;;;;;;5063966;28;20041;-69
2023/02/05 12:53:56;;;;;;;1.70;0.77;;;1.30;99.90;;;;;;5060324;28;20334;-70
2023/02/05 12:56:48;;;;;;;2.88;1.50;;;1.20;99.90;;;;;;5064025;28;20048;-64
2023/02/05 12:59:37;;;;;;;4.03;1.50;;;1.20;99.90;;;;;;5061779;28;20083;-67
2023/02/05 13:02:40;;;;;;;1.92;1.08;;;1.20;99.90;;;;;;5061204;28;20509;-71
2023/02/05 13:05:19;;;;;;;1.25;0.82;;;1.20;99.90;;;;;;5062165;28;20617;-67
2023/02/05 13:08:13;;;;;;;2.88;0.98;;;1.20;99.90;;;;;;5062909;28;20636;-67
2023/02/05 13:10:50;;;;;;;8.93;1.17;;;1.20;99.90;;;;;;5059135;28;20048;-67
2023/02/05 13:13:25;;;;;;;6.97;1.33;;;1.30;99.90;;;;;;5062931;28;20051;-67
2023/02/05 13:16:08;;;;;;;4.40;1.02;;;1.30;99.90;;;;;;5057537;28;20128;-68
2023/02/05 13:18:40;;;;;;;11.48;1.50;;;1.20;99.90;;;;;;5061355;28;20119;-65